sensor_id;sensor_type;location;lat;lon;timestamp;pressure;altitude;pressure_sealevel;temperature;humidity
63115;BME280;49208;50.874;6.466;2023-04-26T06:03:46;100798.47;;;7.57;91.34
63115;BME280;49208;50.874;6.466;2023-04-26T06:06:12;100791.53;;;8.84;81.88
63115;BME280;49208;50.874;6.466;2023-04-26T06:08:37;100789.16;;;9.81;73.52
63115;BME280;49208;50.874;6.466;2023-04-26T06:11:03;100801.34;;;10.82;68.29
63115;BME280;49208;50.874;6.466;2023-04-26T06:13:29;100803.06;;;11.92;64.72
63115;BME280;49208;50.874;6.466;2023-04-26T06:15:55;100793.47;;;13.05;57.80
63115;BME280;49208;50.874;6.466;2023-04-26T06:18:20;100804.81;;;13.76;52.47
63115;BME280;49208;50.874;6.466;2023-04-26T06:20:46;100805.00;;;13.71;51.70
63115;BME280;49208;50.874;6.466;2023-04-26T06:23:11;100805.13;;;13.68;53.52
63115;BME280;49208;50.874;6.466;2023-04-26T06:25:37;100811.97;;;13.96;54.30
63115;BME280;49208;50.874;6.466;2023-04-26T06:28:04;100807.31;;;14.41;50.45
63115;BME280;49208;50.874;6.466;2023-04-26T06:30:30;100802.38;;;14.50;48.01
63115;BME280;49208;50.874;6.466;2023-04-26T06:32:55;100803.59;;;14.04;50.38
63115;BME280;49208;50.874;6.466;2023-04-26T06:35:23;100801.22;;;13.34;52.54
63115;BME280;49208;50.874;6.466;2023-04-26T06:37:49;100801.81;;;12.73;55.81
63115;BME280;49208;50.874;6.466;2023-04-26T06:40:14;100806.69;;;12.64;54.86
63115;BME280;49208;50.874;6.466;2023-04-26T06:42:40;100805.97;;;12.59;54.35
63115;BME280;49208;50.874;6.466;2023-04-26T06:45:05;100809.56;;;12.34;56.63
63115;BME280;49208;50.874;6.466;2023-04-26T06:47:31;100806.00;;;12.10;56.12
63115;BME280;49208;50.874;6.466;2023-04-26T06:49:57;100805.00;;;11.87;56.06
63115;BME280;49208;50.874;6.466;2023-04-26T06:52:22;100803.56;;;11.77;56.36
63115;BME280;49208;50.874;6.466;2023-04-26T06:54:47;100798.09;;;11.55;57.37
63115;BME280;49208;50.874;6.466;2023-04-26T06:57:13;100792.47;;;11.38;58.47
63115;BME280;49208;50.874;6.466;2023-04-26T06:59:39;100805.38;;;11.50;58.60
63115;BME280;49208;50.874;6.466;2023-04-26T07:02:04;100803.94;;;11.66;57.60
63115;BME280;49208;50.874;6.466;2023-04-26T07:04:30;100810.97;;;11.69;58.87
63115;BME280;49208;50.874;6.466;2023-04-26T07:06:56;100809.88;;;11.75;56.87
63115;BME280;49208;50.874;6.466;2023-04-26T07:09:21;100819.41;;;12.08;55.15
63115;BME280;49208;50.874;6.466;2023-04-26T07:11:47;100817.31;;;11.91;58.73
63115;BME280;49208;50.874;6.466;2023-04-26T07:14:12;100814.03;;;11.83;55.33
63115;BME280;49208;50.874;6.466;2023-04-26T07:16:38;100815.00;;;11.81;56.16
63115;BME280;49208;50.874;6.466;2023-04-26T07:19:03;100813.84;;;11.89;55.12
63115;BME280;49208;50.874;6.466;2023-04-26T07:21:28;100809.97;;;11.98;56.20
63115;BME280;49208;50.874;6.466;2023-04-26T07:23:57;100814.28;;;12.02;55.61
63115;BME280;49208;50.874;6.466;2023-04-26T07:26:23;100819.41;;;12.08;55.21
63115;BME280;49208;50.874;6.466;2023-04-26T07:28:50;100818.66;;;12.03;56.90
63115;BME280;49208;50.874;6.466;2023-04-26T07:31:16;100821.25;;;12.06;55.90
63115;BME280;49208;50.874;6.466;2023-04-26T07:33:41;100825.50;;;12.12;56.46
63115;BME280;49208;50.874;6.466;2023-04-26T07:36:07;100829.03;;;11.86;54.55
63115;BME280;49208;50.874;6.466;2023-04-26T07:38:33;100820.81;;;11.67;58.07
63115;BME280;49208;50.874;6.466;2023-04-26T07:40:58;100815.31;;;11.71;58.08
63115;BME280;49208;50.874;6.466;2023-04-26T07:43:26;100813.06;;;11.59;57.79
63115;BME280;49208;50.874;6.466;2023-04-26T07:45:52;100813.78;;;11.64;57.97
63115;BME280;49208;50.874;6.466;2023-04-26T07:48:18;100812.59;;;11.73;54.41
63115;BME280;49208;50.874;6.466;2023-04-26T07:50:43;100813.72;;;11.92;54.94
63115;BME280;49208;50.874;6.466;2023-04-26T07:53:09;100813.88;;;12.13;57.37
63115;BME280;49208;50.874;6.466;2023-04-26T07:55:34;100808.22;;;12.69;53.83
63115;BME280;49208;50.874;6.466;2023-04-26T07:58:01;100803.72;;;13.15;53.19
63115;BME280;49208;50.874;6.466;2023-04-26T08:00:27;100804.66;;;13.14;50.59
63115;BME280;49208;50.874;6.466;2023-04-26T08:02:53;100807.53;;;12.64;51.92
63115;BME280;49208;50.874;6.466;2023-04-26T08:05:18;100811.81;;;12.45;52.84
63115;BME280;49208;50.874;6.466;2023-04-26T08:07:44;100807.28;;;12.47;52.02
63115;BME280;49208;50.874;6.466;2023-04-26T08:10:10;100806.25;;;12.74;52.49
63115;BME280;49208;50.874;6.466;2023-04-26T08:12:36;100800.09;;;12.72;47.48
63115;BME280;49208;50.874;6.466;2023-04-26T08:15:03;100795.81;;;12.68;47.11
63115;BME280;49208;50.874;6.466;2023-04-26T08:17:29;100793.56;;;12.80;49.47
63115;BME280;49208;50.874;6.466;2023-04-26T08:19:56;100787.66;;;12.95;47.23
63115;BME280;49208;50.874;6.466;2023-04-26T08:22:21;100794.66;;;12.98;48.11
63115;BME280;49208;50.874;6.466;2023-04-26T08:24:48;100792.66;;;12.81;47.45
63115;BME280;49208;50.874;6.466;2023-04-26T08:27:14;100793.63;;;12.78;49.00
63115;BME280;49208;50.874;6.466;2023-04-26T08:29:39;100792.75;;;13.01;48.33
63115;BME280;49208;50.874;6.466;2023-04-26T08:32:05;100793.47;;;13.27;46.29
63115;BME280;49208;50.874;6.466;2023-04-26T08:34:31;100800.97;;;13.41;47.11
63115;BME280;49208;50.874;6.466;2023-04-26T08:36:56;100800.97;;;13.41;49.22
63115;BME280;49208;50.874;6.466;2023-04-26T08:39:22;100807.72;;;13.27;46.06
63115;BME280;49208;50.874;6.466;2023-04-26T08:41:52;100807.72;;;13.27;43.99
63115;BME280;49208;50.874;6.466;2023-04-26T08:44:23;100815.34;;;13.14;46.55
63115;BME280;49208;50.874;6.466;2023-04-26T08:49:44;100809.63;;;12.56;47.73
63115;BME280;49208;50.874;6.466;2023-04-26T08:52:13;100808.22;;;12.46;46.98
63115;BME280;49208;50.874;6.466;2023-04-26T08:54:39;100807.53;;;12.64;49.64
63115;BME280;49208;50.874;6.466;2023-04-26T08:57:06;100808.84;;;12.76;45.08
63115;BME280;49208;50.874;6.466;2023-04-26T08:59:38;100812.50;;;12.97;45.04
63115;BME280;49208;50.874;6.466;2023-04-26T09:02:05;100807.63;;;13.07;46.40
63115;BME280;49208;50.874;6.466;2023-04-26T09:04:31;100807.78;;;13.04;46.15
63115;BME280;49208;50.874;6.466;2023-04-26T09:07:01;100816.53;;;12.85;44.77
63115;BME280;49208;50.874;6.466;2023-04-26T09:09:32;100817.22;;;12.67;46.70
63115;BME280;49208;50.874;6.466;2023-04-26T09:11:59;100803.19;;;12.38;43.82
63115;BME280;49208;50.874;6.466;2023-04-26T09:14:26;100806.75;;;11.87;44.21
63115;BME280;49208;50.874;6.466;2023-04-26T09:16:52;100807.94;;;11.26;44.97
63115;BME280;49208;50.874;6.466;2023-04-26T09:19:38;100802.81;;;10.92;49.17
63115;BME280;49208;50.874;6.466;2023-04-26T09:22:04;100796.63;;;10.91;48.21
63115;BME280;49208;50.874;6.466;2023-04-26T09:24:49;100795.19;;;11.08;51.26
63115;BME280;49208;50.874;6.466;2023-04-26T09:27:19;100794.16;;;11.12;47.86
63115;BME280;49208;50.874;6.466;2023-04-26T09:30:11;100795.50;;;10.99;49.83
63115;BME280;49208;50.874;6.466;2023-04-26T09:32:54;100799.47;;;10.85;47.14
63115;BME280;49208;50.874;6.466;2023-04-26T09:35:24;100793.19;;;10.88;49.96
63115;BME280;49208;50.874;6.466;2023-04-26T09:37:57;100794.56;;;11.00;47.15
63115;BME280;49208;50.874;6.466;2023-04-26T09:40:24;100789.94;;;11.60;51.47
63115;BME280;49208;50.874;6.466;2023-04-26T09:43:01;100787.06;;;12.41;49.02
63115;BME280;49208;50.874;6.466;2023-04-26T09:45:29;100779.41;;;12.78;45.33
63115;BME280;49208;50.874;6.466;2023-04-26T09:47:55;100785.41;;;13.06;46.49
63115;BME280;49208;50.874;6.466;2023-04-26T09:50:36;100790.19;;;13.20;45.85
63115;BME280;49208;50.874;6.466;2023-04-26T09:53:01;100781.53;;;13.58;47.66
63115;BME280;49208;50.874;6.466;2023-04-26T09:55:30;100786.44;;;13.89;46.21
63115;BME280;49208;50.874;6.466;2023-04-26T09:57:57;100776.94;;;14.21;45.32
63115;BME280;49208;50.874;6.466;2023-04-26T10:00:25;100779.22;;;14.30;41.56
63115;BME280;49208;50.874;6.466;2023-04-26T10:02:53;100779.25;;;13.89;39.18
63115;BME280;49208;50.874;6.466;2023-04-26T10:05:19;100771.09;;;13.51;42.19
63115;BME280;49208;50.874;6.466;2023-04-26T10:07:46;100778.09;;;13.54;40.86
63115;BME280;49208;50.874;6.466;2023-04-26T10:10:12;100774.09;;;13.64;42.63
63115;BME280;49208;50.874;6.466;2023-04-26T10:12:39;100777.91;;;13.79;40.33
63115;BME280;49208;50.874;6.466;2023-04-26T10:15:07;100772.19;;;13.88;43.38
63115;BME280;49208;50.874;6.466;2023-04-26T10:17:33;100773.31;;;14.03;43.29
63115;BME280;49208;50.874;6.466;2023-04-26T10:19:59;100772.31;;;13.85;44.16
63115;BME280;49208;50.874;6.466;2023-04-26T10:22:31;100765.13;;;14.06;42.18
63115;BME280;49208;50.874;6.466;2023-04-26T10:24:58;100763.22;;;14.29;42.09
63115;BME280;49208;50.874;6.466;2023-04-26T10:30:10;100768.91;;;14.61;39.56
63115;BME280;49208;50.874;6.466;2023-04-26T10:35:21;100763.19;;;14.68;42.04
63115;BME280;49208;50.874;6.466;2023-04-26T10:40:24;100765.28;;;13.62;42.51
63115;BME280;49208;50.874;6.466;2023-04-26T10:42:50;100765.22;;;12.99;42.43
63115;BME280;49208;50.874;6.466;2023-04-26T10:45:45;100766.63;;;12.86;42.04
63115;BME280;49208;50.874;6.466;2023-04-26T10:58:48;100755.22;;;12.59;45.99
63115;BME280;49208;50.874;6.466;2023-04-26T11:01:30;100751.53;;;12.85;45.46
63115;BME280;49208;50.874;6.466;2023-04-26T11:06:22;100744.06;;;13.15;48.57
63115;BME280;49208;50.874;6.466;2023-04-26T11:08:47;100743.00;;;13.41;43.17
63115;BME280;49208;50.874;6.466;2023-04-26T11:11:15;100743.34;;;13.54;44.01
63115;BME280;49208;50.874;6.466;2023-04-26T11:13:42;100739.97;;;13.69;42.55
63115;BME280;49208;50.874;6.466;2023-04-26T11:16:14;100739.00;;;13.92;41.10
63115;BME280;49208;50.874;6.466;2023-04-26T11:18:42;100738.81;;;14.16;42.31
63115;BME280;49208;50.874;6.466;2023-04-26T11:21:08;100735.69;;;14.44;41.50
63115;BME280;49208;50.874;6.466;2023-04-26T11:23:34;100730.75;;;14.55;38.78
63115;BME280;49208;50.874;6.466;2023-04-26T11:26:05;100727.31;;;14.71;39.63
63115;BME280;49208;50.874;6.466;2023-04-26T11:28:32;100722.38;;;14.63;37.54
63115;BME280;49208;50.874;6.466;2023-04-26T11:30:58;100717.63;;;14.30;37.36
63115;BME280;49208;50.874;6.466;2023-04-26T11:33:24;100717.78;;;14.07;39.73
63115;BME280;49208;50.874;6.466;2023-04-26T11:35:50;100710.44;;;14.31;43.07
63115;BME280;49208;50.874;6.466;2023-04-26T11:38:17;100706.97;;;14.67;41.15
63115;BME280;49208;50.874;6.466;2023-04-26T11:40:43;100708.38;;;14.75;42.67
63115;BME280;49208;50.874;6.466;2023-04-26T11:43:09;100700.34;;;14.57;40.13
63115;BME280;49208;50.874;6.466;2023-04-26T11:45:36;100701.50;;;14.32;42.53
63115;BME280;49208;50.874;6.466;2023-04-26T11:48:03;100709.72;;;14.46;41.16
63115;BME280;49208;50.874;6.466;2023-04-26T11:50:33;100705.69;;;14.57;42.23
63115;BME280;49208;50.874;6.466;2023-04-26T11:53:03;100707.94;;;14.47;40.85
63115;BME280;49208;50.874;6.466;2023-04-26T11:55:30;100709.72;;;14.27;41.00
63115;BME280;49208;50.874;6.466;2023-04-26T11:57:59;100711.59;;;14.06;40.63
63115;BME280;49208;50.874;6.466;2023-04-26T12:00:25;100708.97;;;14.05;41.73
63115;BME280;49208;50.874;6.466;2023-04-26T12:02:51;100717.47;;;13.54;41.36
63115;BME280;49208;50.874;6.466;2023-04-26T12:07:50;100716.81;;;13.70;41.19
63115;BME280;49208;50.874;6.466;2023-04-26T12:10:18;100729.09;;;13.53;41.12
63115;BME280;49208;50.874;6.466;2023-04-26T12:12:47;100727.34;;;13.52;42.56
63115;BME280;49208;50.874;6.466;2023-04-26T12:15:14;100718.50;;;13.30;41.54
63115;BME280;49208;50.874;6.466;2023-04-26T12:17:39;100713.28;;;13.27;43.14
63115;BME280;49208;50.874;6.466;2023-04-26T12:20:11;100718.22;;;12.93;41.87
63115;BME280;49208;50.874;6.466;2023-04-26T12:22:37;100707.16;;;13.03;41.91
63115;BME280;49208;50.874;6.466;2023-04-26T12:25:04;100713.19;;;13.08;42.03
63115;BME280;49208;50.874;6.466;2023-04-26T12:27:30;100719.94;;;12.94;43.71
63115;BME280;49208;50.874;6.466;2023-04-26T12:29:56;100710.97;;;12.97;43.93
63115;BME280;49208;50.874;6.466;2023-04-26T12:32:21;100709.91;;;13.01;40.97
63115;BME280;49208;50.874;6.466;2023-04-26T12:34:47;100715.59;;;13.14;44.08
63115;BME280;49208;50.874;6.466;2023-04-26T12:37:13;100705.47;;;13.22;43.85
63115;BME280;49208;50.874;6.466;2023-04-26T12:39:38;100701.78;;;13.25;40.83
63115;BME280;49208;50.874;6.466;2023-04-26T12:42:03;100705.69;;;13.38;41.61
63115;BME280;49208;50.874;6.466;2023-04-26T12:44:29;100711.09;;;13.57;42.80
63115;BME280;49208;50.874;6.466;2023-04-26T12:46:54;100696.56;;;13.83;42.14
63115;BME280;49208;50.874;6.466;2023-04-26T12:49:20;100701.06;;;13.83;41.42
63115;BME280;49208;50.874;6.466;2023-04-26T12:51:45;100696.31;;;13.69;41.45
63115;BME280;49208;50.874;6.466;2023-04-26T12:54:11;100695.78;;;13.61;41.07
63115;BME280;49208;50.874;6.466;2023-04-26T12:56:36;100697.28;;;13.25;41.73
63115;BME280;49208;50.874;6.466;2023-04-26T12:59:08;100692.53;;;13.33;42.98
63115;BME280;49208;50.874;6.466;2023-04-26T13:01:33;100694.28;;;12.90;42.58
63115;BME280;49208;50.874;6.466;2023-04-26T13:03:58;100696.03;;;12.91;41.45
63115;BME280;49208;50.874;6.466;2023-04-26T13:06:25;100695.97;;;12.49;40.17
63115;BME280;49208;50.874;6.466;2023-04-26T13:08:52;100697.59;;;12.53;42.37
63115;BME280;49208;50.874;6.466;2023-04-26T13:11:18;100700.00;;;12.59;42.64
63115;BME280;49208;50.874;6.466;2023-04-26T13:13:43;100704.75;;;12.74;42.73
63115;BME280;49208;50.874;6.466;2023-04-26T13:16:09;100698.09;;;12.85;41.45
63115;BME280;49208;50.874;6.466;2023-04-26T13:18:34;100699.28;;;13.00;43.16
63115;BME280;49208;50.874;6.466;2023-04-26T13:21:00;100702.53;;;12.64;41.04
63115;BME280;49208;50.874;6.466;2023-04-26T13:23:25;100700.78;;;12.85;43.20
63115;BME280;49208;50.874;6.466;2023-04-26T13:25:50;100706.53;;;12.74;42.11
63115;BME280;49208;50.874;6.466;2023-04-26T13:28:16;100702.19;;;12.71;42.18
63115;BME280;49208;50.874;6.466;2023-04-26T13:30:41;100695.53;;;12.82;43.00
63115;BME280;49208;50.874;6.466;2023-04-26T13:33:07;100689.16;;;12.86;42.89
63115;BME280;49208;50.874;6.466;2023-04-26T13:35:32;100692.31;;;12.96;42.79
63115;BME280;49208;50.874;6.466;2023-04-26T13:37:57;100692.31;;;12.73;42.88
63115;BME280;49208;50.874;6.466;2023-04-26T13:40:23;100689.19;;;12.84;42.48
63115;BME280;49208;50.874;6.466;2023-04-26T13:42:48;100690.34;;;12.79;42.29
63115;BME280;49208;50.874;6.466;2023-04-26T13:45:14;100689.09;;;12.65;42.56
63115;BME280;49208;50.874;6.466;2023-04-26T13:47:39;100692.44;;;12.48;42.12
63115;BME280;49208;50.874;6.466;2023-04-26T13:50:05;100699.13;;;12.13;42.78
63115;BME280;49208;50.874;6.466;2023-04-26T13:52:31;100695.34;;;11.70;42.84
63115;BME280;49208;50.874;6.466;2023-04-26T13:54:56;100685.63;;;11.94;43.55
63115;BME280;49208;50.874;6.466;2023-04-26T13:57:22;100692.19;;;11.84;43.88
63115;BME280;49208;50.874;6.466;2023-04-26T13:59:47;100684.31;;;11.81;45.08
63115;BME280;49208;50.874;6.466;2023-04-26T14:02:12;100685.38;;;11.77;44.05
63115;BME280;49208;50.874;6.466;2023-04-26T14:04:38;100685.03;;;11.61;44.66
63115;BME280;49208;50.874;6.466;2023-04-26T14:07:04;100683.41;;;11.57;45.36
63115;BME280;49208;50.874;6.466;2023-04-26T14:09:30;100685.91;;;11.61;46.47
63115;BME280;49208;50.874;6.466;2023-04-26T14:11:56;100685.25;;;11.55;44.94
63115;BME280;49208;50.874;6.466;2023-04-26T14:14:22;100688.78;;;11.30;44.62
63115;BME280;49208;50.874;6.466;2023-04-26T14:16:47;100685.34;;;11.26;44.44
63115;BME280;49208;50.874;6.466;2023-04-26T14:19:13;100679.75;;;11.34;46.27
63115;BME280;49208;50.874;6.466;2023-04-26T14:21:41;100685.47;;;11.48;44.98
63115;BME280;49208;50.874;6.466;2023-04-26T14:24:07;100679.19;;;11.49;45.09
63115;BME280;49208;50.874;6.466;2023-04-26T14:26:32;100679.41;;;11.43;45.10
63115;BME280;49208;50.874;6.466;2023-04-26T14:28:59;100682.84;;;11.47;45.82
63115;BME280;49208;50.874;6.466;2023-04-26T14:31:24;100688.31;;;11.44;45.53
63115;BME280;49208;50.874;6.466;2023-04-26T14:33:50;100680.34;;;11.42;44.28
63115;BME280;49208;50.874;6.466;2023-04-26T14:36:16;100680.56;;;11.36;45.17
63115;BME280;49208;50.874;6.466;2023-04-26T14:38:42;100667.03;;;11.42;45.65
63115;BME280;49208;50.874;6.466;2023-04-26T14:41:12;100659.13;;;11.39;44.74
63115;BME280;49208;50.874;6.466;2023-04-26T14:43:38;100661.00;;;11.62;45.51
63115;BME280;49208;50.874;6.466;2023-04-26T14:46:04;100670.28;;;11.76;44.70
63115;BME280;49208;50.874;6.466;2023-04-26T14:48:30;100662.38;;;11.98;44.08
63115;BME280;49208;50.874;6.466;2023-04-26T14:50:59;100661.59;;;12.18;43.49
63115;BME280;49208;50.874;6.466;2023-04-26T14:53:24;100660.16;;;12.09;42.37
63115;BME280;49208;50.874;6.466;2023-04-26T14:55:57;100668.69;;;11.95;42.36
63115;BME280;49208;50.874;6.466;2023-04-26T14:58:22;100658.44;;;11.83;44.10
63115;BME280;49208;50.874;6.466;2023-04-26T15:00:48;100659.47;;;11.55;43.34
63115;BME280;49208;50.874;6.466;2023-04-26T15:03:14;100650.75;;;11.75;44.29
63115;BME280;49208;50.874;6.466;2023-04-26T15:05:39;100650.84;;;11.72;44.21
63115;BME280;49208;50.874;6.466;2023-04-26T15:08:05;100656.41;;;11.66;43.82
63115;BME280;49208;50.874;6.466;2023-04-26T15:10:30;100644.38;;;11.79;43.45
63115;BME280;49208;50.874;6.466;2023-04-26T15:12:56;100640.16;;;11.97;43.32
63115;BME280;49208;50.874;6.466;2023-04-26T15:15:21;100644.53;;;12.00;43.19
63115;BME280;49208;50.874;6.466;2023-04-26T15:17:47;100637.81;;;11.88;42.82
63115;BME280;49208;50.874;6.466;2023-04-26T15:20:12;100637.00;;;11.86;43.62
63115;BME280;49208;50.874;6.466;2023-04-26T15:22:38;100640.53;;;11.86;43.89
63115;BME280;49208;50.874;6.466;2023-04-26T15:25:04;100643.63;;;11.99;44.86
63115;BME280;49208;50.874;6.466;2023-04-26T15:27:32;100645.44;;;11.99;44.31
63115;BME280;49208;50.874;6.466;2023-04-26T15:29:58;100642.38;;;11.84;42.83
63115;BME280;49208;50.874;6.466;2023-04-26T15:32:23;100648.06;;;11.75;44.14
63115;BME280;49208;50.874;6.466;2023-04-26T15:34:48;100644.72;;;11.45;43.84
63115;BME280;49208;50.874;6.466;2023-04-26T15:37:14;100644.66;;;11.46;44.71
63115;BME280;49208;50.874;6.466;2023-04-26T15:39:40;100646.16;;;11.30;44.14
63115;BME280;49208;50.874;6.466;2023-04-26T15:42:05;100645.19;;;11.06;44.88
63115;BME280;49208;50.874;6.466;2023-04-26T15:44:31;100656.84;;;11.03;45.07
63115;BME280;49208;50.874;6.466;2023-04-26T15:46:56;100652.72;;;10.93;45.94
63115;BME280;49208;50.874;6.466;2023-04-26T15:49:22;100650.56;;;10.79;44.78
63115;BME280;49208;50.874;6.466;2023-04-26T15:51:48;100652.25;;;10.82;46.72
63115;BME280;49208;50.874;6.466;2023-04-26T15:54:13;100651.38;;;10.81;46.38
63115;BME280;49208;50.874;6.466;2023-04-26T15:56:39;100650.84;;;10.70;45.81
63115;BME280;49208;50.874;6.466;2023-04-26T15:59:04;100655.47;;;10.65;46.56
63115;BME280;49208;50.874;6.466;2023-04-26T16:01:30;100657.38;;;10.60;47.01
63115;BME280;49208;50.874;6.466;2023-04-26T16:03:55;100664.84;;;10.48;46.90
63115;BME280;49208;50.874;6.466;2023-04-26T16:06:20;100659.94;;;10.35;46.92
63115;BME280;49208;50.874;6.466;2023-04-26T16:08:46;100665.44;;;10.28;48.18
63115;BME280;49208;50.874;6.466;2023-04-26T16:11:11;100661.13;;;10.24;48.32
63115;BME280;49208;50.874;6.466;2023-04-26T16:13:36;100667.59;;;10.16;48.73
63115;BME280;49208;50.874;6.466;2023-04-26T16:16:06;100657.88;;;10.15;48.54
63115;BME280;49208;50.874;6.466;2023-04-26T16:18:32;100655.22;;;10.15;48.47
63115;BME280;49208;50.874;6.466;2023-04-26T16:21:05;100651.34;;;9.97;47.51
63115;BME280;49208;50.874;6.466;2023-04-26T16:23:31;100653.31;;;9.90;48.27
63115;BME280;49208;50.874;6.466;2023-04-26T16:25:57;100653.41;;;9.85;49.28
63115;BME280;49208;50.874;6.466;2023-04-26T16:28:22;100663.50;;;9.74;50.38
63115;BME280;49208;50.874;6.466;2023-04-26T16:30:48;100666.22;;;9.71;50.45
63115;BME280;49208;50.874;6.466;2023-04-26T16:33:13;100656.59;;;9.67;50.11
63115;BME280;49208;50.874;6.466;2023-04-26T16:35:39;100665.66;;;9.61;49.41
63115;BME280;49208;50.874;6.466;2023-04-26T16:38:05;100658.56;;;9.60;49.59
63115;BME280;49208;50.874;6.466;2023-04-26T16:40:30;100653.22;;;9.62;50.29
63115;BME280;49208;50.874;6.466;2023-04-26T16:42:56;100656.75;;;9.62;50.19
63115;BME280;49208;50.874;6.466;2023-04-26T16:45:21;100650.47;;;9.65;51.27
63115;BME280;49208;50.874;6.466;2023-04-26T16:47:47;100659.50;;;9.59;49.88
63115;BME280;49208;50.874;6.466;2023-04-26T16:50:12;100655.00;;;9.61;49.68
63115;BME280;49208;50.874;6.466;2023-04-26T16:52:37;100651.56;;;9.58;50.02
63115;BME280;49208;50.874;6.466;2023-04-26T16:55:03;100650.88;;;9.51;50.16
63115;BME280;49208;50.874;6.466;2023-04-26T16:57:30;100651.72;;;9.51;50.55
63115;BME280;49208;50.874;6.466;2023-04-26T16:59:55;100654.53;;;9.47;50.35
63115;BME280;49208;50.874;6.466;2023-04-26T17:02:21;100656.31;;;9.46;50.67
63115;BME280;49208;50.874;6.466;2023-04-26T17:04:46;100653.03;;;9.37;50.25
63115;BME280;49208;50.874;6.466;2023-04-26T17:07:12;100649.63;;;9.31;50.55
63115;BME280;49208;50.874;6.466;2023-04-26T17:09:38;100654.38;;;9.19;50.60
63115;BME280;49208;50.874;6.466;2023-04-26T17:12:04;100657.16;;;9.16;51.00
63115;BME280;49208;50.874;6.466;2023-04-26T17:14:30;100656.19;;;9.18;51.37
63115;BME280;49208;50.874;6.466;2023-04-26T17:16:56;100657.16;;;9.16;50.97
63115;BME280;49208;50.874;6.466;2023-04-26T17:19:21;100657.16;;;9.14;50.86
63115;BME280;49208;50.874;6.466;2023-04-26T17:21:47;100658.81;;;9.20;51.06
63115;BME280;49208;50.874;6.466;2023-04-26T17:24:12;100663.16;;;9.22;52.16
63115;BME280;49208;50.874;6.466;2023-04-26T17:26:38;100661.22;;;9.27;51.75
63115;BME280;49208;50.874;6.466;2023-04-26T17:29:03;100661.19;;;9.29;52.58
63115;BME280;49208;50.874;6.466;2023-04-26T17:31:29;100665.63;;;9.30;52.99
63115;BME280;49208;50.874;6.466;2023-04-26T17:33:54;100654.06;;;9.31;52.96
63115;BME280;49208;50.874;6.466;2023-04-26T17:36:20;100650.50;;;9.32;51.79
63115;BME280;49208;50.874;6.466;2023-04-26T17:38:45;100658.34;;;9.37;52.23
63115;BME280;49208;50.874;6.466;2023-04-26T17:41:13;100654.94;;;9.31;50.67
63115;BME280;49208;50.874;6.466;2023-04-26T17:43:38;100657.47;;;9.36;51.35
63115;BME280;49208;50.874;6.466;2023-04-26T17:46:03;100664.69;;;9.31;50.84
63115;BME280;49208;50.874;6.466;2023-04-26T17:48:29;100664.78;;;9.28;51.02
63115;BME280;49208;50.874;6.466;2023-04-26T17:50:55;100669.28;;;9.26;50.99
63115;BME280;49208;50.874;6.466;2023-04-26T17:53:20;100664.16;;;9.18;51.42
63115;BME280;49208;50.874;6.466;2023-04-26T17:55:46;100661.78;;;9.07;51.25
63115;BME280;49208;50.874;6.466;2023-04-26T17:58:12;100655.69;;;9.02;51.34
63115;BME280;49208;50.874;6.466;2023-04-26T18:00:37;100662.13;;;8.94;51.82
63115;BME280;49208;50.874;6.466;2023-04-26T18:03:03;100659.72;;;8.84;50.49
63115;BME280;49208;50.874;6.466;2023-04-26T18:05:29;100666.09;;;8.76;50.77
63115;BME280;49208;50.874;6.466;2023-04-26T18:07:56;100664.59;;;8.65;50.67
63115;BME280;49208;50.874;6.466;2023-04-26T18:10:21;100670.13;;;8.56;51.30
63115;BME280;49208;50.874;6.466;2023-04-26T18:12:47;100679.97;;;8.51;51.09
63115;BME280;49208;50.874;6.466;2023-04-26T18:15:12;100679.19;;;8.46;51.98
63115;BME280;49208;50.874;6.466;2023-04-26T18:17:38;100681.16;;;8.36;53.04
63115;BME280;49208;50.874;6.466;2023-04-26T18:20:04;100684.94;;;8.26;54.17
63115;BME280;49208;50.874;6.466;2023-04-26T18:22:30;100678.00;;;8.19;55.02
63115;BME280;49208;50.874;6.466;2023-04-26T18:24:56;100679.06;;;8.12;55.45
63115;BME280;49208;50.874;6.466;2023-04-26T18:27:21;100679.19;;;8.05;55.82
63115;BME280;49208;50.874;6.466;2023-04-26T18:29:47;100691.63;;;8.02;56.52
63115;BME280;49208;50.874;6.466;2023-04-26T18:32:13;100689.94;;;7.99;56.59
63115;BME280;49208;50.874;6.466;2023-04-26T18:34:39;100692.66;;;7.95;56.98
63115;BME280;49208;50.874;6.466;2023-04-26T18:37:05;100690.97;;;7.90;57.15
63115;BME280;49208;50.874;6.466;2023-04-26T18:39:31;100689.25;;;7.88;56.90
63115;BME280;49208;50.874;6.466;2023-04-26T18:41:56;100692.84;;;7.85;58.35
63115;BME280;49208;50.874;6.466;2023-04-26T18:44:21;100690.31;;;7.79;58.70
63115;BME280;49208;50.874;6.466;2023-04-26T18:46:47;100700.09;;;7.76;60.05
63115;BME280;49208;50.874;6.466;2023-04-26T18:49:12;100703.78;;;7.70;60.34
63115;BME280;49208;50.874;6.466;2023-04-26T18:51:38;100703.06;;;7.62;60.83
63115;BME280;49208;50.874;6.466;2023-04-26T18:54:03;100704.06;;;7.55;61.85
63115;BME280;49208;50.874;6.466;2023-04-26T18:56:29;100700.66;;;7.46;62.57
63115;BME280;49208;50.874;6.466;2023-04-26T18:58:55;100706.09;;;7.40;63.52
63115;BME280;49208;50.874;6.466;2023-04-26T19:01:21;100708.81;;;7.36;62.81
63115;BME280;49208;50.874;6.466;2023-04-26T19:03:46;100715.91;;;7.34;64.46
63115;BME280;49208;50.874;6.466;2023-04-26T19:06:12;100713.28;;;7.32;63.90
63115;BME280;49208;50.874;6.466;2023-04-26T19:08:41;100711.59;;;7.28;65.28
63115;BME280;49208;50.874;6.466;2023-04-26T19:11:07;100710.81;;;7.23;63.87
63115;BME280;49208;50.874;6.466;2023-04-26T19:13:33;100709.97;;;7.21;65.32
63115;BME280;49208;50.874;6.466;2023-04-26T19:15:59;100715.28;;;7.19;63.59
63115;BME280;49208;50.874;6.466;2023-04-26T19:18:26;100718.81;;;7.20;64.05